createdAt,value
2022-12-31T00:02:13.663Z,100088.44
2022-12-31T00:04:40.440Z,100098.88
2022-12-31T00:07:06.788Z,100089.00
2022-12-31T00:09:33.247Z,100085.97
2022-12-31T00:11:59.621Z,100077.09
2022-12-31T00:14:26.012Z,100082.41
2022-12-31T00:16:52.519Z,100083.66
2022-12-31T00:19:18.900Z,100082.47
2022-12-31T00:21:45.310Z,100084.50
2022-12-31T00:24:12.515Z,100082.09
2022-12-31T00:26:39.176Z,100077.81
2022-12-31T00:29:05.851Z,100073.56
2022-12-31T00:31:37.376Z,100061.00
2022-12-31T00:34:04.879Z,100064.22
2022-12-31T00:36:34.599Z,100060.81
2022-12-31T00:39:03.037Z,100060.84
2022-12-31T00:41:29.919Z,100058.41
2022-12-31T00:43:56.322Z,100055.41
2022-12-31T00:46:23.406Z,100065.75
2022-12-31T00:48:49.946Z,100053.13
2022-12-31T00:51:18.678Z,100046.47
2022-12-31T00:53:45.337Z,100046.47
2022-12-31T00:56:14.623Z,100048.16
2022-12-31T00:58:41.311Z,100043.69
2022-12-31T01:01:32.775Z,100029.66
2022-12-31T01:04:06.974Z,100035.91
2022-12-31T01:06:33.469Z,100029.63
2022-12-31T01:08:59.890Z,100030.44
2022-12-31T01:11:29.434Z,100023.75
2022-12-31T01:14:06.329Z,100021.13
2022-12-31T01:16:39.250Z,100025.56
2022-12-31T01:19:08.295Z,100024.53
2022-12-31T01:21:37.203Z,100026.72
2022-12-31T01:24:04.426Z,100024.47
2022-12-31T01:26:30.982Z,100030.16
2022-12-31T01:28:57.550Z,100027.31
2022-12-31T01:31:24.951Z,100020.41
2022-12-31T01:33:52.274Z,100026.66
2022-12-31T01:36:26.098Z,100023.63
2022-12-31T01:38:54.591Z,100020.50
2022-12-31T01:41:33.722Z,100012.59
2022-12-31T01:44:02.390Z,100010.16
2022-12-31T01:46:39.697Z,100014.63
2022-12-31T01:49:31.358Z,100029.03
2022-12-31T01:52:21.552Z,100016.59
2022-12-31T01:54:53.934Z,100025.53
2022-12-31T01:57:22.385Z,100034.91
2022-12-31T01:59:49.538Z,100033.47
2022-12-31T02:02:16.468Z,100034.44
2022-12-31T02:04:42.999Z,100044.78
2022-12-31T02:07:11.247Z,100051.06
2022-12-31T02:09:40.082Z,100052.97
2022-12-31T02:12:07.818Z,100059.50
2022-12-31T02:14:48.008Z,100053.31
2022-12-31T02:17:32.248Z,100048.84
2022-12-31T02:20:29.613Z,100041.47
2022-12-31T02:23:01.931Z,100030.75
2022-12-31T02:25:56.348Z,100024.03
2022-12-31T02:28:38.064Z,100029.94
2022-12-31T02:31:11.857Z,100036.09
2022-12-31T02:33:49.852Z,100036.53
2022-12-31T02:36:23.394Z,100047.50
2022-12-31T02:38:50.420Z,100055.88
2022-12-31T02:41:38.060Z,100044.13
2022-12-31T02:44:24.211Z,100040.19
2022-12-31T02:47:09.039Z,100035.25
2022-12-31T02:49:38.340Z,100035.25
2022-12-31T02:52:14.735Z,100048.63
2022-12-31T02:54:58.853Z,100044.94
2022-12-31T02:57:39.781Z,100040.34
2022-12-31T03:00:32.019Z,100051.00
2022-12-31T03:03:00.277Z,100049.13
2022-12-31T03:05:30.343Z,100059.63
2022-12-31T03:07:56.738Z,100061.00
2022-12-31T03:10:23.626Z,100062.03
2022-12-31T03:12:51.459Z,100062.84
2022-12-31T03:15:27.174Z,100061.72
2022-12-31T03:18:54.926Z,100049.28
2022-12-31T03:21:53.678Z,100051.34
2022-12-31T03:24:42.136Z,100052.50
2022-12-31T03:27:08.515Z,100058.06
2022-12-31T03:29:34.938Z,100056.56
2022-12-31T03:32:01.314Z,100067.63
2022-12-31T03:34:27.683Z,100066.72
2022-12-31T03:36:54.049Z,100062.09
2022-12-31T03:39:20.450Z,100082.88
2022-12-31T03:41:46.886Z,100077.09
2022-12-31T03:44:13.240Z,100090.22
2022-12-31T03:46:39.595Z,100098.31
2022-12-31T03:49:05.931Z,100085.38
2022-12-31T03:51:32.312Z,100088.72
2022-12-31T03:53:58.678Z,100080.31
2022-12-31T03:56:25.044Z,100085.72
2022-12-31T03:58:51.429Z,100099.19
2022-12-31T04:01:17.955Z,100091.41
2022-12-31T04:03:44.419Z,100085.94
2022-12-31T04:06:10.790Z,100091.25
2022-12-31T04:08:37.165Z,100085.84
2022-12-31T04:11:04.459Z,100085.94
2022-12-31T04:13:30.853Z,100069.25
2022-12-31T04:15:57.327Z,100077.88
2022-12-31T04:18:23.721Z,100079.84
2022-12-31T04:20:50.150Z,100077.41
2022-12-31T04:23:16.930Z,100076.97
2022-12-31T04:25:43.313Z,100092.88
2022-12-31T04:28:09.707Z,100073.16
2022-12-31T04:30:36.056Z,100086.03
2022-12-31T04:33:02.576Z,100095.75
2022-12-31T04:35:28.965Z,100090.47
2022-12-31T04:37:55.369Z,100081.69
2022-12-31T04:40:21.861Z,100087.25
2022-12-31T04:42:48.222Z,100091.72
2022-12-31T04:45:14.693Z,100093.56
2022-12-31T04:47:41.107Z,100103.16
2022-12-31T04:50:07.717Z,100095.19
2022-12-31T04:52:40.291Z,100101.91
2022-12-31T04:55:08.986Z,100124.63
2022-12-31T04:57:35.373Z,100123.25
2022-12-31T05:00:01.771Z,100120.72
2022-12-31T05:02:29.881Z,100117.59
2022-12-31T05:04:56.410Z,100117.50
2022-12-31T05:07:22.812Z,100118.66
2022-12-31T05:09:49.152Z,100109.44
2022-12-31T05:12:15.518Z,100123.25
2022-12-31T05:14:41.944Z,100130.78
2022-12-31T05:17:08.369Z,100120.53
2022-12-31T05:19:34.728Z,100117.03
2022-12-31T05:22:19.770Z,100132.19
2022-12-31T05:24:46.122Z,100121.69
2022-12-31T05:27:12.668Z,100129.53
2022-12-31T05:29:39.021Z,100117.31
2022-12-31T05:32:05.409Z,100117.06
2022-12-31T05:34:31.810Z,100140.72
2022-12-31T05:36:58.251Z,100120.75
2022-12-31T05:39:24.684Z,100129.28
2022-12-31T05:41:51.123Z,100140.72
2022-12-31T05:44:17.496Z,100137.47
2022-12-31T05:46:43.866Z,100145.78
2022-12-31T05:49:10.352Z,100145.66
2022-12-31T05:51:36.751Z,100138.19
2022-12-31T05:54:03.330Z,100142.91
2022-12-31T05:56:29.824Z,100135.06
2022-12-31T05:58:56.200Z,100144.44
2022-12-31T06:01:22.731Z,100142.44
2022-12-31T06:03:49.294Z,100145.56
2022-12-31T06:06:15.779Z,100157.47
2022-12-31T06:08:42.194Z,100155.59
2022-12-31T06:11:08.655Z,100169.56
2022-12-31T06:13:35.075Z,100176.75
2022-12-31T06:16:09.045Z,100164.84
2022-12-31T06:18:35.651Z,100181.25
2022-12-31T06:21:05.799Z,100185.16
2022-12-31T06:23:32.406Z,100177.88
2022-12-31T06:26:03.341Z,100193.34
2022-12-31T06:28:29.748Z,100193.47
2022-12-31T06:31:00.636Z,100211.25
2022-12-31T06:33:27.430Z,100201.56
2022-12-31T06:35:58.157Z,100198.19
2022-12-31T06:38:26.235Z,100205.47
2022-12-31T06:40:53.017Z,100204.22
2022-12-31T06:43:20.293Z,100222.13
2022-12-31T06:45:46.880Z,100209.06
2022-12-31T06:48:13.590Z,100217.13
2022-12-31T06:50:40.303Z,100225.31
2022-12-31T06:53:07.889Z,100241.84
2022-12-31T06:55:34.764Z,100243.72
2022-12-31T06:58:01.456Z,100235.50
2022-12-31T07:00:28.359Z,100239.09
2022-12-31T07:03:10.007Z,100234.47
2022-12-31T07:05:44.945Z,100224.44
2022-12-31T07:08:30.290Z,100252.97
2022-12-31T07:11:07.109Z,100240.84
2022-12-31T07:13:44.162Z,100229.75
2022-12-31T07:16:13.553Z,100240.25
2022-12-31T07:18:52.334Z,100258.72
2022-12-31T07:21:30.637Z,100244.06
2022-12-31T07:23:57.396Z,100247.28
2022-12-31T07:26:35.950Z,100248.00
2022-12-31T07:29:11.887Z,100244.41
2022-12-31T07:31:46.749Z,100239.91
2022-12-31T07:34:22.487Z,100252.38
2022-12-31T07:36:56.006Z,100238.97
2022-12-31T07:39:39.046Z,100236.53
2022-12-31T07:42:23.505Z,100248.78
2022-12-31T07:45:01.089Z,100243.94
2022-12-31T07:47:29.027Z,100243.59
2022-12-31T07:49:56.242Z,100249.25
2022-12-31T07:52:23.522Z,100248.91
2022-12-31T07:54:49.865Z,100252.59
2022-12-31T07:57:18.840Z,100256.78
2022-12-31T07:59:57.315Z,100259.66
2022-12-31T08:02:36.503Z,100257.69
2022-12-31T08:05:08.623Z,100250.88
2022-12-31T08:07:56.343Z,100284.84
2022-12-31T08:10:34.735Z,100270.06
2022-12-31T08:13:03.658Z,100279.50
2022-12-31T08:15:30.889Z,100290.38
2022-12-31T08:17:57.796Z,100280.31
2022-12-31T08:20:25.560Z,100281.84
2022-12-31T08:23:10.275Z,100295.81
2022-12-31T08:25:59.048Z,100283.34
2022-12-31T08:28:59.019Z,100290.13
2022-12-31T08:31:54.644Z,100293.75
2022-12-31T08:34:23.816Z,100299.75
2022-12-31T08:37:08.488Z,100298.25
2022-12-31T08:40:01.228Z,100299.06
2022-12-31T08:42:55.992Z,100298.47
2022-12-31T08:45:37.751Z,100305.28
2022-12-31T08:48:26.530Z,100325.66
2022-12-31T08:50:54.154Z,100342.63
2022-12-31T08:53:21.115Z,100334.41
2022-12-31T08:55:52.702Z,100337.06
2022-12-31T08:58:34.327Z,100323.53
2022-12-31T09:01:01.501Z,100326.91
2022-12-31T09:03:55.091Z,100324.81
2022-12-31T09:06:29.238Z,100315.00
2022-12-31T09:09:05.615Z,100323.78
2022-12-31T09:12:10.490Z,100334.09
2022-12-31T09:15:06.433Z,100356.38
2022-12-31T09:17:38.994Z,100359.97
2022-12-31T09:20:06.777Z,100368.88
2022-12-31T09:22:33.343Z,100380.88
2022-12-31T09:25:00.003Z,100355.69
2022-12-31T09:27:42.821Z,100395.09
2022-12-31T09:30:13.963Z,100397.28
2022-12-31T09:33:01.784Z,100407.91
2022-12-31T09:35:37.988Z,100409.75
2022-12-31T09:38:37.238Z,100413.47
2022-12-31T09:41:29.934Z,100415.44
2022-12-31T09:44:15.089Z,100409.91
2022-12-31T09:47:12.438Z,100418.81
2022-12-31T09:49:59.441Z,100428.19
2022-12-31T09:52:41.844Z,100432.25
2022-12-31T09:55:49.242Z,100421.28
2022-12-31T09:58:18.668Z,100413.50
2022-12-31T10:01:17.648Z,100435.56
2022-12-31T10:03:58.239Z,100441.94
2022-12-31T10:06:39.905Z,100442.44
2022-12-31T10:09:39.255Z,100443.34
2022-12-31T10:12:25.031Z,100468.69
2022-12-31T10:15:28.882Z,100448.56
2022-12-31T10:18:09.444Z,100438.84
2022-12-31T10:21:09.693Z,100456.78
2022-12-31T10:23:48.296Z,100458.25
2022-12-31T10:26:29.069Z,100448.22
2022-12-31T10:29:06.056Z,100455.03
2022-12-31T10:31:40.579Z,100458.63
2022-12-31T10:34:44.574Z,100446.38
2022-12-31T10:37:17.231Z,100465.91
2022-12-31T10:39:43.658Z,100464.31
2022-12-31T10:42:19.283Z,100454.13
2022-12-31T10:45:12.494Z,100457.81
2022-12-31T10:48:00.758Z,100452.63
2022-12-31T10:50:46.814Z,100459.06
2022-12-31T10:53:25.095Z,100443.56
2022-12-31T10:56:26.205Z,100455.84
2022-12-31T10:59:27.907Z,100430.84
2022-12-31T11:02:16.440Z,100441.94
2022-12-31T11:05:24.288Z,100426.19
2022-12-31T11:07:58.692Z,100435.56
2022-12-31T11:10:51.787Z,100449.81
2022-12-31T11:13:30.267Z,100445.78
2022-12-31T11:16:18.102Z,100439.84
2022-12-31T11:19:17.576Z,100442.53
2022-12-31T11:22:24.481Z,100457.00
2022-12-31T11:25:09.842Z,100434.78
2022-12-31T11:28:08.042Z,100451.00
2022-12-31T11:31:05.277Z,100450.75
2022-12-31T11:37:04.947Z,100444.97
2022-12-31T11:39:44.768Z,100445.19
2022-12-31T11:42:35.871Z,100453.28
2022-12-31T11:45:14.544Z,100450.16
2022-12-31T11:48:29.692Z,100446.13
2022-12-31T11:50:51.070Z,100442.66
2022-12-31T11:53:26.320Z,100459.09
2022-12-31T11:56:24.943Z,100445.78
2022-12-31T11:58:53.474Z,100461.41
2022-12-31T12:01:32.624Z,100452.25
2022-12-31T12:03:59.872Z,100447.63
2022-12-31T12:06:31.571Z,100456.91
2022-12-31T12:09:13.268Z,100464.97
2022-12-31T12:11:40.515Z,100442.56
2022-12-31T12:14:33.534Z,100457.38
2022-12-31T12:17:04.796Z,100446.59
2022-12-31T12:19:34.139Z,100439.75
2022-12-31T12:22:10.976Z,100440.47
2022-12-31T12:24:37.746Z,100436.97
2022-12-31T12:27:04.453Z,100444.88
2022-12-31T12:29:34.768Z,100436.06
2022-12-31T12:32:04.409Z,100434.00
2022-12-31T12:34:36.761Z,100433.41
2022-12-31T12:37:03.953Z,100444.84
2022-12-31T12:39:34.505Z,100439.53
2022-12-31T12:42:10.633Z,100436.06
2022-12-31T12:44:37.425Z,100435.28
2022-12-31T12:47:08.205Z,100430.63
2022-12-31T12:49:40.688Z,100449.78
2022-12-31T12:52:36.009Z,100443.78
2022-12-31T12:55:12.202Z,100444.03
2022-12-31T12:57:45.963Z,100452.13
2022-12-31T13:00:25.270Z,100459.88
2022-12-31T13:02:55.041Z,100451.81
2022-12-31T13:05:41.990Z,100479.44
2022-12-31T13:08:14.381Z,100481.41
2022-12-31T13:11:11.480Z,100480.72
2022-12-31T13:13:47.131Z,100481.06
2022-12-31T13:16:22.844Z,100484.50
2022-12-31T13:19:00.378Z,100471.56
2022-12-31T13:21:39.088Z,100480.16
2022-12-31T13:24:18.611Z,100481.19
2022-12-31T13:26:57.754Z,100487.19
2022-12-31T13:29:32.538Z,100510.09
2022-12-31T13:32:01.841Z,100520.25
2022-12-31T13:34:35.169Z,100476.22
2022-12-31T13:37:40.161Z,100473.88
2022-12-31T13:40:34.248Z,100467.53
2022-12-31T13:43:12.202Z,100474.56
2022-12-31T13:45:44.614Z,100476.88
2022-12-31T13:48:22.079Z,100488.81
2022-12-31T13:50:59.182Z,100472.28
2022-12-31T13:53:34.074Z,100477.38
2022-12-31T13:56:03.506Z,100478.38
2022-12-31T13:58:38.509Z,100477.81
2022-12-31T14:01:35.685Z,100471.91
2022-12-31T14:04:25.148Z,100472.59
2022-12-31T14:07:04.522Z,100476.06
2022-12-31T14:09:34.132Z,100490.00
2022-12-31T14:12:34.509Z,100492.06
2022-12-31T14:15:14.317Z,100473.66
2022-12-31T14:17:52.680Z,100461.16
2022-12-31T14:20:33.181Z,100470.63
2022-12-31T14:23:24.048Z,100459.28
2022-12-31T14:25:59.533Z,100460.19
2022-12-31T14:28:33.163Z,100478.41
2022-12-31T14:31:15.547Z,100484.63
2022-12-31T14:33:41.987Z,100490.41
2022-12-31T14:36:40.843Z,100489.66
2022-12-31T14:39:17.159Z,100495.41
2022-12-31T14:41:54.987Z,100491.88
2022-12-31T14:44:32.214Z,100489.47
2022-12-31T14:47:27.544Z,100489.91
2022-12-31T14:50:13.984Z,100479.13
2022-12-31T14:52:58.973Z,100487.31
2022-12-31T14:55:28.702Z,100482.94
2022-12-31T15:01:22.462Z,100489.97
2022-12-31T15:03:50.576Z,100479.75
2022-12-31T15:06:22.797Z,100482.06
2022-12-31T15:09:17.887Z,100488.53
2022-12-31T15:11:56.448Z,100494.50
2022-12-31T15:14:50.837Z,100466.44
2022-12-31T15:17:36.059Z,100499.53
2022-12-31T15:20:02.366Z,100492.81
2022-12-31T15:22:46.140Z,100504.19
2022-12-31T15:25:40.531Z,100484.63
2022-12-31T15:28:32.254Z,100488.16
2022-12-31T15:31:11.745Z,100501.22
2022-12-31T15:33:53.563Z,100504.09
2022-12-31T15:36:23.089Z,100507.91
2022-12-31T15:38:50.571Z,100507.78
2022-12-31T15:41:19.919Z,100497.16
2022-12-31T15:43:54.411Z,100503.66
2022-12-31T15:46:25.652Z,100514.25
2022-12-31T15:49:03.747Z,100499.56
2022-12-31T15:51:41.007Z,100498.53
2022-12-31T15:54:16.961Z,100498.88
2022-12-31T15:56:47.251Z,100498.75
2022-12-31T15:59:16.758Z,100497.88
2022-12-31T16:01:45.316Z,100500.94
2022-12-31T16:04:33.470Z,100494.53
2022-12-31T16:07:03.845Z,100488.84
2022-12-31T16:09:34.540Z,100502.50
2022-12-31T16:12:03.634Z,100487.53
2022-12-31T16:14:55.404Z,100494.09
2022-12-31T16:17:31.268Z,100490.69
2022-12-31T16:19:58.566Z,100484.00
2022-12-31T16:22:40.236Z,100493.41
2022-12-31T16:25:30.831Z,100491.84
2022-12-31T16:27:58.219Z,100492.97
2022-12-31T16:30:30.237Z,100491.66
2022-12-31T16:33:03.138Z,100496.63
2022-12-31T16:35:32.028Z,100496.47
2022-12-31T16:38:15.297Z,100491.31
2022-12-31T16:40:44.082Z,100495.78
2022-12-31T16:43:35.776Z,100487.00
2022-12-31T16:46:17.348Z,100491.31
2022-12-31T16:48:51.860Z,100488.97
2022-12-31T16:51:25.558Z,100490.56
2022-12-31T16:53:52.368Z,100487.72
2022-12-31T16:56:37.155Z,100500.22
2022-12-31T16:59:12.054Z,100502.44
2022-12-31T17:01:38.978Z,100503.28
2022-12-31T17:04:10.885Z,100498.56
2022-12-31T17:06:37.403Z,100493.34
2022-12-31T17:09:15.130Z,100512.28
2022-12-31T17:11:50.696Z,100491.50
2022-12-31T17:14:19.636Z,100494.22
2022-12-31T17:17:04.029Z,100498.56
2022-12-31T17:19:36.079Z,100484.03
2022-12-31T17:22:04.579Z,100485.28
2022-12-31T17:24:31.584Z,100484.09
2022-12-31T17:27:05.387Z,100482.69
2022-12-31T17:29:32.157Z,100470.72
2022-12-31T17:32:05.290Z,100470.72
2022-12-31T17:34:34.697Z,100475.34
2022-12-31T17:37:06.983Z,100472.53
2022-12-31T17:39:46.391Z,100469.31
2022-12-31T17:42:15.623Z,100469.34
2022-12-31T17:44:44.531Z,100463.41
2022-12-31T17:47:14.010Z,100474.00
2022-12-31T17:49:44.947Z,100471.22
2022-12-31T17:52:15.635Z,100465.09
2022-12-31T17:54:42.819Z,100460.38
2022-12-31T17:57:26.752Z,100479.38
2022-12-31T17:59:53.889Z,100474.91
2022-12-31T18:02:20.491Z,100472.84
2022-12-31T18:04:47.142Z,100474.47
2022-12-31T18:07:13.580Z,100473.72
2022-12-31T18:09:40.028Z,100474.59
2022-12-31T18:12:06.971Z,100472.31
2022-12-31T18:14:33.423Z,100461.69
2022-12-31T18:17:00.728Z,100454.56
2022-12-31T18:22:16.105Z,100465.47
2022-12-31T18:24:43.361Z,100460.44
2022-12-31T18:27:16.411Z,100457.78
2022-12-31T18:29:43.411Z,100457.78
2022-12-31T18:32:21.035Z,100477.22
2022-12-31T18:34:47.790Z,100451.53
2022-12-31T18:37:21.272Z,100458.31
2022-12-31T18:39:48.338Z,100453.19
2022-12-31T18:42:17.594Z,100473.63
2022-12-31T18:44:45.183Z,100456.91
2022-12-31T18:47:17.206Z,100459.25
2022-12-31T18:49:44.942Z,100451.16
2022-12-31T18:52:16.347Z,100446.06
2022-12-31T18:54:42.798Z,100449.88
2022-12-31T18:57:11.185Z,100440.56
2022-12-31T18:59:37.599Z,100451.28
2022-12-31T19:02:04.504Z,100443.13
2022-12-31T19:04:31.294Z,100456.41
2022-12-31T19:06:57.714Z,100456.59
2022-12-31T19:09:44.621Z,100462.56
2022-12-31T19:12:13.384Z,100461.97
2022-12-31T19:14:39.947Z,100458.31
2022-12-31T19:19:31.676Z,100470.25
2022-12-31T19:21:58.008Z,100463.31
2022-12-31T19:24:26.517Z,100460.72
2022-12-31T19:26:54.104Z,100481.78
2022-12-31T19:29:23.047Z,100481.59
2022-12-31T19:31:49.786Z,100470.16
2022-12-31T19:34:16.347Z,100477.06
2022-12-31T19:36:44.312Z,100481.72
2022-12-31T19:39:15.949Z,100482.53
2022-12-31T19:41:43.659Z,100494.38
2022-12-31T19:44:19.852Z,100501.09
2022-12-31T19:46:47.040Z,100492.25
2022-12-31T19:49:14.293Z,100498.63
2022-12-31T19:51:41.240Z,100508.56
2022-12-31T19:54:08.569Z,100510.25
2022-12-31T19:56:35.159Z,100518.84
2022-12-31T19:59:09.352Z,100518.84
2022-12-31T20:01:36.057Z,100529.91
2022-12-31T20:04:02.693Z,100520.84
2022-12-31T20:06:29.148Z,100535.53
2022-12-31T20:08:55.596Z,100547.19
2022-12-31T20:11:24.022Z,100535.16
2022-12-31T20:13:55.058Z,100551.50
2022-12-31T20:16:26.705Z,100542.06
2022-12-31T20:18:53.386Z,100554.97
2022-12-31T20:21:22.365Z,100558.63
2022-12-31T20:23:50.121Z,100559.41
2022-12-31T20:26:17.864Z,100563.47
2022-12-31T20:28:44.727Z,100566.13
2022-12-31T20:31:14.500Z,100577.91
2022-12-31T20:33:41.107Z,100576.72
2022-12-31T20:36:10.395Z,100574.50
2022-12-31T20:38:37.348Z,100573.66
2022-12-31T20:41:12.840Z,100574.97
2022-12-31T20:43:39.984Z,100585.88
2022-12-31T20:46:21.026Z,100587.59
2022-12-31T20:48:48.597Z,100580.22
2022-12-31T20:51:16.638Z,100584.06
2022-12-31T20:53:57.352Z,100588.94
2022-12-31T20:56:25.833Z,100579.44
2022-12-31T20:58:52.327Z,100585.94
2022-12-31T21:01:19.584Z,100587.88
2022-12-31T21:06:34.777Z,100598.50
2022-12-31T21:09:02.756Z,100599.22
2022-12-31T21:11:47.782Z,100597.94
2022-12-31T21:14:14.573Z,100614.75
2022-12-31T21:16:41.004Z,100613.94
2022-12-31T21:19:07.501Z,100608.56
2022-12-31T21:21:33.986Z,100611.38
2022-12-31T21:24:00.406Z,100611.66
2022-12-31T21:26:27.454Z,100615.88
2022-12-31T21:28:53.899Z,100627.59
2022-12-31T21:31:20.377Z,100615.34
2022-12-31T21:33:47.399Z,100617.97
2022-12-31T21:36:14.614Z,100624.56
2022-12-31T21:38:41.570Z,100619.13
2022-12-31T21:41:09.469Z,100620.97
2022-12-31T21:43:35.961Z,100623.41
2022-12-31T21:46:07.117Z,100616.97
2022-12-31T21:48:33.999Z,100621.53
2022-12-31T21:51:15.153Z,100613.38
2022-12-31T21:53:41.625Z,100614.78
2022-12-31T21:56:09.554Z,100618.88
2022-12-31T21:58:41.219Z,100617.03
2022-12-31T22:01:33.733Z,100616.84
2022-12-31T22:04:00.299Z,100621.41
2022-12-31T22:06:26.967Z,100619.19
2022-12-31T22:08:55.516Z,100616.75
2022-12-31T22:11:25.717Z,100625.38
2022-12-31T22:13:53.348Z,100634.38
2022-12-31T22:16:20.856Z,100629.13
2022-12-31T22:18:48.070Z,100647.13
2022-12-31T22:21:19.318Z,100635.25
2022-12-31T22:23:52.097Z,100640.56
2022-12-31T22:26:21.466Z,100653.63
2022-12-31T22:28:48.082Z,100647.94
2022-12-31T22:31:24.270Z,100652.06
2022-12-31T22:33:51.000Z,100655.53
2022-12-31T22:36:22.015Z,100651.19
2022-12-31T22:38:50.767Z,100657.84
2022-12-31T22:41:22.317Z,100663.97
2022-12-31T22:43:51.384Z,100662.75
2022-12-31T22:46:20.683Z,100655.59
2022-12-31T22:48:47.573Z,100656.84
2022-12-31T22:51:14.985Z,100657.22
2022-12-31T22:53:43.271Z,100667.28
2022-12-31T22:56:12.192Z,100670.88
2022-12-31T22:58:38.850Z,100671.69
2022-12-31T23:01:18.095Z,100663.13
2022-12-31T23:03:45.695Z,100646.00
2022-12-31T23:06:12.316Z,100665.19
2022-12-31T23:08:38.783Z,100649.06
2022-12-31T23:11:06.149Z,100654.97
2022-12-31T23:13:59.523Z,100644.56
2022-12-31T23:16:48.405Z,100654.00
2022-12-31T23:19:33.915Z,100643.75
2022-12-31T23:22:19.390Z,100642.78
2022-12-31T23:24:45.817Z,100665.22
2022-12-31T23:27:12.654Z,100661.78
2022-12-31T23:29:46.123Z,100652.66
2022-12-31T23:32:13.907Z,100656.41
2022-12-31T23:34:40.334Z,100659.41
2022-12-31T23:37:06.753Z,100652.94
2022-12-31T23:39:33.173Z,100661.53
2022-12-31T23:42:00.432Z,100668.06
2022-12-31T23:44:28.369Z,100666.66
2022-12-31T23:46:55.213Z,100669.97
2022-12-31T23:49:22.036Z,100664.66
2022-12-31T23:51:48.691Z,100664.66
2022-12-31T23:54:15.834Z,100671.81
2022-12-31T23:56:42.357Z,100672.06
2022-12-31T23:59:09.929Z,100671.47
